Terminal Aerodrome Forecast
Issued by NWS Twin Cities, MN

Home | Current Version | Previous Version | Text Only | Print | Product List | Glossary Off
Versions: 1 2 3 4 5 6 7 8 9 10 11 12 13 14 15

000
FTUS43 KMPX 261000 AAC
TAFSTC
TAF AMD
KSTC 261006Z 2610/2706 01006KT P6SM OVC020
     FM261300 35010KT 6SM BR OVC010
     FM261800 34009KT P6SM OVC014=

USA.gov is the U.S. government's official web portal to all federal, state and local government web resources and services.